createdAt,value
2017-10-18T00:00:04.403Z,10.79
2017-10-18T00:01:13.358Z,10.74
2017-10-18T00:02:22.552Z,10.81
2017-10-18T00:03:31.747Z,10.7
2017-10-18T00:04:40.598Z,10.73
2017-10-18T00:05:49.453Z,10.68
2017-10-18T00:06:58.550Z,10.61
2017-10-18T00:08:07.400Z,10.61
2017-10-18T00:09:16.241Z,10.63
2017-10-18T00:10:25.087Z,10.64
2017-10-18T00:11:33.937Z,10.66
2017-10-18T00:12:42.935Z,10.53
2017-10-18T00:13:51.782Z,10.53
2017-10-18T00:15:00.630Z,10.48
2017-10-18T00:16:09.477Z,10.52
2017-10-18T00:17:18.325Z,10.56
2017-10-18T00:18:27.577Z,10.48
2017-10-18T00:19:36.427Z,10.44
2017-10-18T00:20:45.276Z,10.52
2017-10-18T00:21:54.121Z,10.45
2017-10-18T00:23:02.968Z,10.51
2017-10-18T00:24:11.969Z,10.45
2017-10-18T00:25:20.820Z,10.44
2017-10-18T00:26:29.667Z,10.44
2017-10-18T00:27:38.516Z,10.51
2017-10-18T00:28:47.365Z,10.51
2017-10-18T00:29:56.461Z,10.48
2017-10-18T00:31:05.311Z,10.44
2017-10-18T00:32:14.157Z,10.41
2017-10-18T00:33:23.002Z,10.42
2017-10-18T00:34:31.847Z,10.4
2017-10-18T00:35:40.997Z,10.38
2017-10-18T00:36:49.845Z,10.38
2017-10-18T00:37:58.692Z,10.34
2017-10-18T00:39:07.891Z,10.4
2017-10-18T00:40:16.737Z,10.32
2017-10-18T00:41:25.784Z,10.4
2017-10-18T00:42:34.633Z,10.41
2017-10-18T00:43:43.481Z,10.4
2017-10-18T00:44:52.328Z,10.36
2017-10-18T00:46:01.177Z,10.34
2017-10-18T00:47:10.424Z,10.3
2017-10-18T00:48:19.279Z,10.3
2017-10-18T00:49:28.131Z,10.22
2017-10-18T00:50:36.971Z,10.26
2017-10-18T00:51:45.818Z,10.26
2017-10-18T00:52:54.866Z,10.23
2017-10-18T00:54:03.713Z,10.18
2017-10-18T00:55:12.562Z,10.22
2017-10-18T00:56:21.412Z,10.18
2017-10-18T00:57:30.260Z,10.2
2017-10-18T00:58:39.405Z,10.17
2017-10-18T00:59:48.258Z,10.18
2017-10-18T01:00:57.110Z,10.25
2017-10-18T01:02:06.308Z,10.32
2017-10-18T01:03:15.148Z,10.33
2017-10-18T01:04:24.338Z,10.29
2017-10-18T01:05:33.188Z,10.2
2017-10-18T01:06:42.412Z,10.26
2017-10-18T01:07:51.262Z,10.25
2017-10-18T01:09:00.121Z,10.17
2017-10-18T01:10:09.262Z,10.29
2017-10-18T01:11:18.108Z,10.22
2017-10-18T01:12:26.955Z,10.17
2017-10-18T01:13:35.801Z,10.15
2017-10-18T01:14:44.645Z,10.14
2017-10-18T01:15:53.492Z,10.2
2017-10-18T01:17:02.339Z,10.17
2017-10-18T01:18:11.186Z,10.11
2017-10-18T01:19:20.036Z,10.09
2017-10-18T01:20:28.886Z,10.11
2017-10-18T01:21:37.835Z,10.08
2017-10-18T01:22:46.685Z,10.14
2017-10-18T01:23:55.530Z,10.09
2017-10-18T01:25:04.378Z,10.12
2017-10-18T01:26:13.225Z,10.11
2017-10-18T01:27:22.471Z,10.05
2017-10-18T01:28:31.318Z,10.09
2017-10-18T01:29:40.166Z,10.02
2017-10-18T01:30:49.013Z,9.99
2017-10-18T01:31:57.860Z,9.91
2017-10-18T01:33:06.856Z,9.94
2017-10-18T01:34:15.705Z,10.07
2017-10-18T01:35:24.557Z,9.97
2017-10-18T01:36:33.403Z,10.02
2017-10-18T01:37:42.254Z,9.96
2017-10-18T01:38:51.703Z,10.02
2017-10-18T01:40:00.551Z,10.04
2017-10-18T01:41:09.400Z,9.93
2017-10-18T01:42:18.248Z,10.04
2017-10-18T01:43:27.101Z,9.93
2017-10-18T01:44:36.092Z,9.99
2017-10-18T01:45:44.938Z,10.01
2017-10-18T01:46:54.137Z,9.94
2017-10-18T01:48:02.980Z,10.01
2017-10-18T01:49:11.825Z,9.96
2017-10-18T01:50:20.823Z,9.99
2017-10-18T01:51:29.672Z,9.96
2017-10-18T01:52:38.531Z,9.94
2017-10-18T01:53:47.728Z,9.93
2017-10-18T01:54:56.576Z,9.97
2017-10-18T01:56:05.475Z,9.97
2017-10-18T01:57:14.326Z,9.96
2017-10-18T01:58:23.171Z,9.93
2017-10-18T01:59:32.015Z,9.94
2017-10-18T02:00:40.863Z,9.94
2017-10-18T02:01:49.858Z,9.91
2017-10-18T02:02:58.703Z,9.86
2017-10-18T02:04:07.552Z,9.84
2017-10-18T02:05:16.400Z,9.9
2017-10-18T02:06:25.248Z,9.9
2017-10-18T02:07:34.442Z,9.93
2017-10-18T02:08:43.291Z,9.96
2017-10-18T02:09:52.143Z,9.91
2017-10-18T02:11:00.988Z,9.94
2017-10-18T02:12:09.835Z,9.89
2017-10-18T02:13:18.982Z,9.83
2017-10-18T02:14:27.832Z,9.86
2017-10-18T02:15:36.681Z,9.76
2017-10-18T02:16:45.552Z,9.81
2017-10-18T02:17:54.374Z,9.89
2017-10-18T02:19:03.728Z,9.76
2017-10-18T02:20:12.579Z,9.81
2017-10-18T02:21:21.425Z,9.89
2017-10-18T02:22:30.274Z,9.87
2017-10-18T02:23:39.125Z,9.81
2017-10-18T02:24:48.180Z,9.84
2017-10-18T02:25:57.023Z,9.89
2017-10-18T02:27:05.872Z,9.79
2017-10-18T02:28:14.727Z,9.76
2017-10-18T02:29:23.568Z,9.86
2017-10-18T02:30:32.464Z,9.91
2017-10-18T02:31:41.311Z,9.76
2017-10-18T02:32:50.155Z,9.76
2017-10-18T02:33:59.013Z,9.78
2017-10-18T02:35:08.205Z,9.74
2017-10-18T02:36:17.151Z,9.76
2017-10-18T02:37:25.998Z,9.75
2017-10-18T02:38:34.847Z,9.75
2017-10-18T02:39:43.695Z,9.76
2017-10-18T02:40:52.894Z,9.79
2017-10-18T02:42:01.734Z,9.66
2017-10-18T02:43:10.585Z,9.64
2017-10-18T02:44:19.444Z,9.72
2017-10-18T02:45:28.285Z,9.69
2017-10-18T02:46:37.136Z,9.69
2017-10-18T02:47:46.127Z,9.69
2017-10-18T02:48:54.976Z,9.64
2017-10-18T02:50:03.822Z,9.68
2017-10-18T02:51:12.665Z,9.69
2017-10-18T02:52:21.514Z,9.69
2017-10-18T02:53:30.512Z,9.65
2017-10-18T02:54:39.361Z,9.69
2017-10-18T02:55:48.208Z,9.56
2017-10-18T02:56:57.053Z,9.65
2017-10-18T02:58:05.904Z,9.64
2017-10-18T02:59:14.848Z,9.58
2017-10-18T03:00:23.695Z,9.61
2017-10-18T03:01:32.540Z,9.64
2017-10-18T03:02:41.387Z,9.58
2017-10-18T03:03:50.234Z,9.6
2017-10-18T03:04:59.626Z,9.53
2017-10-18T03:06:08.473Z,9.58
2017-10-18T03:07:17.319Z,9.56
2017-10-18T03:08:26.167Z,9.51
2017-10-18T03:09:35.015Z,9.57
2017-10-18T03:10:43.962Z,9.51
2017-10-18T03:11:52.810Z,9.51
2017-10-18T03:13:01.653Z,9.54
2017-10-18T03:14:10.500Z,9.53
2017-10-18T03:15:19.348Z,9.54
2017-10-18T03:16:28.247Z,9.48
2017-10-18T03:17:37.442Z,9.56
2017-10-18T03:18:46.290Z,9.53
2017-10-18T03:19:55.143Z,9.5
2017-10-18T03:21:04.331Z,9.54
2017-10-18T03:22:13.324Z,9.54
2017-10-18T03:23:22.190Z,9.5
2017-10-18T03:24:31.023Z,9.48
2017-10-18T03:25:39.871Z,9.56
2017-10-18T03:26:48.718Z,9.54
2017-10-18T03:27:57.715Z,9.61
2017-10-18T03:29:06.563Z,9.54
2017-10-18T03:30:15.410Z,9.58
2017-10-18T03:31:24.257Z,9.53
2017-10-18T03:32:33.105Z,9.53
2017-10-18T03:33:41.951Z,9.51
2017-10-18T03:34:50.795Z,9.53
2017-10-18T03:35:59.644Z,9.54
2017-10-18T03:37:08.491Z,9.57
2017-10-18T03:38:17.338Z,9.56
2017-10-18T03:39:26.435Z,9.6
2017-10-18T03:40:35.301Z,9.54
2017-10-18T03:41:44.137Z,9.5
2017-10-18T03:42:53.330Z,9.57
2017-10-18T03:44:02.169Z,9.58
2017-10-18T03:45:11.166Z,9.5
2017-10-18T03:46:20.016Z,9.64
2017-10-18T03:47:28.860Z,9.69
2017-10-18T03:48:37.704Z,9.64
2017-10-18T03:49:46.553Z,9.69
2017-10-18T03:50:55.552Z,9.72
2017-10-18T03:52:04.398Z,9.66
2017-10-18T03:53:13.591Z,9.66
2017-10-18T03:54:22.437Z,9.71
2017-10-18T03:55:31.285Z,9.66
2017-10-18T03:56:40.229Z,9.68
2017-10-18T03:57:49.428Z,9.61
2017-10-18T03:58:58.278Z,9.75
2017-10-18T04:00:07.121Z,9.76
2017-10-18T04:01:15.970Z,9.81
2017-10-18T04:02:25.118Z,9.78
2017-10-18T04:03:33.962Z,9.79
2017-10-18T04:04:42.810Z,9.76
2017-10-18T04:05:51.656Z,9.83
2017-10-18T04:07:00.503Z,9.89
2017-10-18T04:08:09.618Z,9.78
2017-10-18T04:09:18.448Z,9.87
2017-10-18T04:10:27.296Z,9.91
2017-10-18T04:11:36.139Z,9.87
2017-10-18T04:12:44.989Z,9.86
2017-10-18T04:13:53.887Z,9.89
2017-10-18T04:15:02.734Z,9.89
2017-10-18T04:16:11.583Z,9.83
2017-10-18T04:17:20.428Z,9.93
2017-10-18T04:18:29.274Z,9.86
2017-10-18T04:19:38.320Z,9.9
2017-10-18T04:20:47.513Z,9.93
2017-10-18T04:21:56.362Z,9.9
2017-10-18T04:23:05.210Z,9.93
2017-10-18T04:24:14.060Z,9.91
2017-10-18T04:25:23.056Z,10.01
2017-10-18T04:26:31.903Z,10.04
2017-10-18T04:27:40.753Z,9.97
2017-10-18T04:28:49.603Z,10.04
2017-10-18T04:29:58.452Z,9.94
2017-10-18T04:31:07.599Z,10.01
2017-10-18T04:32:16.446Z,10.08
2017-10-18T04:33:25.293Z,10.07
2017-10-18T04:34:34.137Z,10.04
2017-10-18T04:35:42.982Z,10.08
2017-10-18T04:36:51.879Z,10.11
2017-10-18T04:38:00.727Z,10.11
2017-10-18T04:39:09.576Z,10.18
2017-10-18T04:40:18.426Z,10.15
2017-10-18T04:41:27.275Z,10.17
2017-10-18T04:42:36.122Z,10.11
2017-10-18T04:43:44.997Z,10.09
2017-10-18T04:44:53.846Z,10.22
2017-10-18T04:46:02.691Z,10.17
2017-10-18T04:47:11.537Z,10.15
2017-10-18T04:48:21.216Z,10.15
2017-10-18T04:49:30.117Z,10.2
2017-10-18T04:50:38.966Z,10.23
2017-10-18T04:51:47.820Z,10.14
2017-10-18T04:52:56.757Z,10.17
2017-10-18T04:54:06.880Z,10.17
2017-10-18T04:55:15.739Z,10.25
2017-10-18T04:56:24.588Z,10.26
2017-10-18T04:57:33.447Z,10.23
2017-10-18T04:58:42.296Z,10.18
2017-10-18T04:59:51.151Z,10.32
2017-10-18T05:01:14.180Z,10.3
2017-10-18T05:02:23.188Z,10.3
2017-10-18T05:03:32.051Z,10.25
2017-10-18T05:04:41.241Z,10.25
2017-10-18T05:05:51.179Z,10.29
2017-10-18T05:07:01.766Z,10.32
2017-10-18T05:08:10.988Z,10.4
2017-10-18T05:09:19.840Z,10.34
2017-10-18T05:10:28.696Z,10.41
2017-10-18T05:11:37.545Z,10.33
2017-10-18T05:12:46.398Z,10.41
2017-10-18T05:13:55.342Z,10.4
2017-10-18T05:15:04.197Z,10.38
2017-10-18T05:16:13.048Z,10.41
2017-10-18T05:17:21.895Z,10.44
2017-10-18T05:18:30.781Z,10.42
2017-10-18T05:19:40.102Z,10.41
2017-10-18T05:20:48.952Z,10.42
2017-10-18T05:21:57.813Z,10.45
2017-10-18T05:23:06.666Z,10.42
2017-10-18T05:24:15.515Z,10.47
2017-10-18T05:25:24.561Z,10.47
2017-10-18T05:26:33.412Z,10.44
2017-10-18T05:27:42.269Z,10.45
2017-10-18T05:28:51.120Z,10.42
2017-10-18T05:30:00.672Z,10.42
2017-10-18T05:31:10.172Z,10.52
2017-10-18T05:32:19.066Z,10.41
2017-10-18T05:33:27.919Z,10.42
2017-10-18T05:34:36.773Z,10.53
2017-10-18T05:35:45.619Z,10.52
2017-10-18T05:36:55.008Z,10.51
2017-10-18T05:38:03.857Z,10.52
2017-10-18T05:39:12.708Z,10.59
2017-10-18T05:40:21.626Z,10.53
2017-10-18T05:41:30.479Z,10.59
2017-10-18T05:42:39.444Z,10.52
2017-10-18T05:43:48.295Z,10.51
2017-10-18T05:44:57.150Z,10.6
2017-10-18T05:46:06.000Z,10.63
2017-10-18T05:47:14.849Z,10.64
2017-10-18T05:48:23.846Z,10.6
2017-10-18T05:49:32.707Z,10.55
2017-10-18T05:50:41.565Z,10.61
2017-10-18T05:51:50.414Z,10.63
2017-10-18T05:52:59.278Z,10.68
2017-10-18T05:54:08.325Z,10.61
2017-10-18T05:55:17.242Z,10.64
2017-10-18T05:56:26.089Z,10.71
2017-10-18T05:57:34.937Z,10.71
2017-10-18T05:58:43.789Z,10.73
2017-10-18T05:59:52.787Z,10.7
2017-10-18T06:01:01.635Z,10.74
2017-10-18T06:02:10.504Z,10.74
2017-10-18T06:03:19.332Z,10.74
2017-10-18T06:04:28.188Z,10.7
2017-10-18T06:05:37.078Z,10.78
2017-10-18T06:06:45.928Z,10.71
2017-10-18T06:07:54.778Z,10.7
2017-10-18T06:09:03.630Z,10.74
2017-10-18T06:10:12.480Z,10.76
2017-10-18T06:11:21.583Z,10.68
2017-10-18T06:12:30.431Z,10.67
2017-10-18T06:13:39.280Z,10.73
2017-10-18T06:14:48.130Z,10.73
2017-10-18T06:15:56.984Z,10.81
2017-10-18T06:17:06.227Z,10.84
2017-10-18T06:18:15.129Z,10.81
2017-10-18T06:19:24.076Z,10.84
2017-10-18T06:20:33.008Z,10.88
2017-10-18T06:21:41.896Z,10.85
2017-10-18T06:22:50.919Z,10.91
2017-10-18T06:23:59.888Z,10.94
2017-10-18T06:25:08.807Z,10.91
2017-10-18T06:26:17.802Z,10.85
2017-10-18T06:27:26.987Z,10.91
2017-10-18T06:28:36.183Z,10.91
2017-10-18T06:29:45.134Z,10.97
2017-10-18T06:30:54.036Z,10.92
2017-10-18T06:32:02.888Z,10.99
2017-10-18T06:33:11.744Z,10.94
2017-10-18T06:34:20.743Z,11.02
2017-10-18T06:35:29.589Z,10.99
2017-10-18T06:36:38.438Z,10.97
2017-10-18T06:37:47.286Z,11
2017-10-18T06:38:56.137Z,11.04
2017-10-18T06:40:04.990Z,11.06
2017-10-18T06:41:13.841Z,11.07
2017-10-18T06:42:22.687Z,11.07
2017-10-18T06:43:31.543Z,11.07
2017-10-18T06:44:40.391Z,11.1
2017-10-18T06:45:49.340Z,11.15
2017-10-18T06:46:58.191Z,11.02
2017-10-18T06:48:07.042Z,11.14
2017-10-18T06:49:15.893Z,11.21
2017-10-18T06:50:24.742Z,11.17
2017-10-18T06:51:33.853Z,11.22
2017-10-18T06:52:42.697Z,11.1
2017-10-18T06:53:51.893Z,11.18
2017-10-18T06:55:01.096Z,11.22
2017-10-18T06:56:10.287Z,11.24
2017-10-18T06:57:19.132Z,11.22
2017-10-18T06:58:27.985Z,11.28
2017-10-18T06:59:36.831Z,11.25
2017-10-18T07:00:45.678Z,11.27
2017-10-18T07:01:54.528Z,11.28
2017-10-18T07:03:03.422Z,11.29
2017-10-18T07:04:12.278Z,11.28
2017-10-18T07:05:21.123Z,11.28
2017-10-18T07:06:29.974Z,11.33
2017-10-18T07:07:38.820Z,11.21
2017-10-18T07:08:47.769Z,11.29
2017-10-18T07:09:56.617Z,11.28
2017-10-18T07:11:05.480Z,11.25
2017-10-18T07:12:14.328Z,11.25
2017-10-18T07:13:23.177Z,11.28
2017-10-18T07:14:32.231Z,11.25
2017-10-18T07:15:41.079Z,11.28
2017-10-18T07:16:49.929Z,11.29
2017-10-18T07:17:58.780Z,11.32
2017-10-18T07:19:07.630Z,11.24
2017-10-18T07:20:16.678Z,11.22
2017-10-18T07:21:25.523Z,11.24
2017-10-18T07:22:34.374Z,11.27
2017-10-18T07:23:43.223Z,11.28
2017-10-18T07:24:52.072Z,11.25
2017-10-18T07:26:01.121Z,11.27
2017-10-18T07:27:09.973Z,11.18
2017-10-18T07:28:19.165Z,11.21
2017-10-18T07:29:28.013Z,11.29
2017-10-18T07:30:36.861Z,11.32
2017-10-18T07:31:45.711Z,11.33
2017-10-18T07:32:54.561Z,11.24
2017-10-18T07:34:03.409Z,11.33
2017-10-18T07:35:12.263Z,11.24
2017-10-18T07:36:21.115Z,11.28
2017-10-18T07:37:30.164Z,11.28
2017-10-18T07:38:39.013Z,11.29
2017-10-18T07:39:47.862Z,11.33
2017-10-18T07:40:56.712Z,11.29
2017-10-18T07:42:05.562Z,11.35
2017-10-18T07:43:14.558Z,11.37
2017-10-18T07:44:23.411Z,11.43
2017-10-18T07:45:32.262Z,11.42
2017-10-18T07:46:41.123Z,11.37
2017-10-18T07:47:50.317Z,11.32
2017-10-18T07:48:59.741Z,11.39
2017-10-18T07:50:08.587Z,11.4
2017-10-18T07:51:17.436Z,11.42
2017-10-18T07:52:26.286Z,11.44
2017-10-18T07:53:35.134Z,11.43
2017-10-18T07:54:44.236Z,11.47
2017-10-18T07:55:53.090Z,11.51
2017-10-18T07:57:01.940Z,11.49
2017-10-18T07:58:10.790Z,11.52
2017-10-18T07:59:19.639Z,11.55
2017-10-18T08:00:28.639Z,11.55
2017-10-18T08:01:37.490Z,11.54
2017-10-18T08:02:46.343Z,11.58
2017-10-18T08:03:55.193Z,11.52
2017-10-18T08:05:04.044Z,11.6
2017-10-18T08:06:13.089Z,11.64
2017-10-18T08:07:21.940Z,11.65
2017-10-18T08:08:30.790Z,11.76
2017-10-18T08:09:39.647Z,11.6
2017-10-18T08:10:48.497Z,11.69
2017-10-18T08:11:57.496Z,11.72
2017-10-18T08:13:06.342Z,11.69
2017-10-18T08:14:15.189Z,11.72
2017-10-18T08:15:24.038Z,11.67
2017-10-18T08:16:32.888Z,11.72
2017-10-18T08:17:41.787Z,11.79
2017-10-18T08:18:50.634Z,11.75
2017-10-18T08:19:59.483Z,11.78
2017-10-18T08:21:08.331Z,11.75
2017-10-18T08:22:17.188Z,11.75
2017-10-18T08:23:26.054Z,11.8
2017-10-18T08:24:34.904Z,11.79
2017-10-18T08:25:43.755Z,11.8
2017-10-18T08:26:52.624Z,11.85
2017-10-18T08:28:01.824Z,11.85
2017-10-18T08:29:10.816Z,11.95
2017-10-18T08:30:19.669Z,11.91
2017-10-18T08:31:28.517Z,11.83
2017-10-18T08:32:37.366Z,11.96
2017-10-18T08:33:46.216Z,11.95
2017-10-18T08:34:55.117Z,11.95
2017-10-18T08:36:04.320Z,11.91
2017-10-18T08:37:13.169Z,12.02
2017-10-18T08:38:22.365Z,12.1
2017-10-18T08:39:31.218Z,12.1
2017-10-18T08:40:40.219Z,12.1
2017-10-18T08:41:49.066Z,12.09
2017-10-18T08:42:57.920Z,12.12
2017-10-18T08:44:06.769Z,12.16
2017-10-18T08:45:15.622Z,12.13
2017-10-18T08:46:24.670Z,12.17
2017-10-18T08:47:33.519Z,12.24
2017-10-18T08:48:42.375Z,12.29
2017-10-18T08:49:51.220Z,12.35
2017-10-18T08:51:00.069Z,12.24
2017-10-18T08:52:09.021Z,12.31
2017-10-18T08:53:17.874Z,12.41
2017-10-18T08:54:26.722Z,12.41
2017-10-18T08:55:35.582Z,12.41
2017-10-18T08:56:44.437Z,12.37
2017-10-18T08:57:53.782Z,12.49
2017-10-18T08:59:02.631Z,12.47
2017-10-18T09:00:12.650Z,12.53
2017-10-18T09:01:20.326Z,12.47
2017-10-18T09:02:29.181Z,12.59
2017-10-18T09:03:38.081Z,12.56
2017-10-18T09:04:46.935Z,12.56
2017-10-18T09:05:55.784Z,12.68
2017-10-18T09:07:04.638Z,12.7
2017-10-18T09:08:13.488Z,12.68
2017-10-18T09:09:22.785Z,12.74
2017-10-18T09:10:31.637Z,12.7
2017-10-18T09:11:40.487Z,12.82
2017-10-18T09:12:49.348Z,12.79
2017-10-18T09:13:58.545Z,12.77
2017-10-18T09:15:07.555Z,12.85
2017-10-18T09:16:16.393Z,12.9
2017-10-18T09:17:25.243Z,12.97
2017-10-18T09:18:34.095Z,13
2017-10-18T09:19:42.944Z,13
2017-10-18T09:20:52.098Z,12.97
2017-10-18T09:22:00.948Z,13.03
2017-10-18T09:23:10.156Z,13.07
2017-10-18T09:24:19.012Z,13.07
2017-10-18T09:25:28.205Z,13.05
2017-10-18T09:26:37.104Z,13.03
2017-10-18T09:27:45.953Z,13.19
2017-10-18T09:28:54.802Z,13.15
2017-10-18T09:30:03.653Z,13.26
2017-10-18T09:31:12.502Z,13.26
2017-10-18T09:32:21.553Z,13.29
2017-10-18T09:33:30.407Z,13.33
2017-10-18T09:34:39.259Z,13.3
2017-10-18T09:35:48.110Z,13.33
2017-10-18T09:36:56.968Z,13.38
2017-10-18T09:38:05.809Z,13.46
2017-10-18T09:39:14.662Z,13.42
2017-10-18T09:40:23.515Z,13.48
2017-10-18T09:41:32.361Z,13.48
2017-10-18T09:42:41.213Z,13.48
2017-10-18T09:43:50.073Z,13.49
2017-10-18T09:44:59.267Z,13.59
2017-10-18T09:46:08.117Z,13.49
2017-10-18T09:47:16.967Z,13.6
2017-10-18T09:48:25.820Z,13.63
2017-10-18T09:49:35.074Z,13.7
2017-10-18T09:50:43.927Z,13.7
2017-10-18T09:51:52.778Z,13.77
2017-10-18T09:53:01.631Z,13.7
2017-10-18T09:54:10.480Z,13.71
2017-10-18T09:55:19.330Z,13.75
2017-10-18T09:56:28.182Z,13.81
2017-10-18T09:57:37.032Z,13.73
2017-10-18T09:58:45.883Z,13.82
2017-10-18T09:59:54.731Z,13.95
2017-10-18T10:01:03.733Z,13.92
2017-10-18T10:02:12.588Z,13.91
2017-10-18T10:03:21.449Z,14.02
2017-10-18T10:04:30.299Z,13.95
2017-10-18T10:05:39.152Z,14.02
2017-10-18T10:06:48.161Z,14.17
2017-10-18T10:07:57.009Z,14.21
2017-10-18T10:09:05.865Z,14.17
2017-10-18T10:10:14.713Z,14.24
2017-10-18T10:11:23.909Z,14.29
2017-10-18T10:12:32.837Z,14.32
2017-10-18T10:13:41.656Z,14.29
2017-10-18T10:14:50.505Z,14.28
2017-10-18T10:15:59.357Z,14.25
2017-10-18T10:17:08.210Z,14.25
2017-10-18T10:18:17.313Z,14.28
2017-10-18T10:19:26.164Z,14.28
2017-10-18T10:20:35.016Z,14.46
2017-10-18T10:21:43.878Z,14.42
2017-10-18T10:22:53.081Z,14.4
2017-10-18T10:24:02.337Z,14.43
2017-10-18T10:25:11.190Z,14.45
2017-10-18T10:26:20.044Z,14.45
2017-10-18T10:27:28.896Z,14.46
2017-10-18T10:28:37.745Z,14.57
2017-10-18T10:29:46.744Z,14.54
2017-10-18T10:30:55.598Z,14.64
2017-10-18T10:32:04.448Z,14.64
2017-10-18T10:33:13.302Z,14.65
2017-10-18T10:34:22.152Z,14.77
2017-10-18T10:35:31.256Z,14.7
2017-10-18T10:36:40.112Z,14.69
2017-10-18T10:37:48.966Z,14.86
2017-10-18T10:38:57.817Z,14.8
2017-10-18T10:40:06.669Z,14.83
2017-10-18T10:41:15.673Z,14.96
2017-10-18T10:42:24.527Z,14.98
2017-10-18T10:43:33.379Z,14.98
2017-10-18T10:44:42.582Z,15.1
2017-10-18T10:45:51.433Z,15.01
2017-10-18T10:47:00.732Z,14.99
2017-10-18T10:48:09.586Z,15.14
2017-10-18T10:49:18.436Z,15.16
2017-10-18T10:50:27.288Z,15.17
2017-10-18T10:51:36.143Z,15.23
2017-10-18T10:52:44.992Z,15.29
2017-10-18T10:53:53.846Z,15.25
2017-10-18T10:55:02.712Z,15.27
2017-10-18T10:56:11.551Z,15.23
2017-10-18T10:57:20.403Z,15.27
2017-10-18T10:58:29.506Z,15.29
2017-10-18T10:59:38.356Z,15.32
2017-10-18T11:00:47.207Z,15.39
2017-10-18T11:01:56.061Z,15.47
2017-10-18T11:03:04.914Z,15.44
2017-10-18T11:04:14.164Z,15.39
2017-10-18T11:05:23.018Z,15.47
2017-10-18T11:06:31.871Z,15.34
2017-10-18T11:07:40.725Z,15.53
2017-10-18T11:08:49.582Z,15.5
2017-10-18T11:09:58.687Z,15.5
2017-10-18T11:11:07.539Z,15.54
2017-10-18T11:12:16.390Z,15.54
2017-10-18T11:13:25.243Z,15.72
2017-10-18T11:14:34.103Z,15.74
2017-10-18T11:15:43.200Z,15.76
2017-10-18T11:16:52.055Z,15.62
2017-10-18T11:18:00.911Z,15.68
2017-10-18T11:19:09.774Z,15.71
2017-10-18T11:20:18.614Z,15.82
2017-10-18T11:21:27.770Z,15.78
2017-10-18T11:22:36.625Z,15.76
2017-10-18T11:23:45.476Z,15.83
2017-10-18T11:24:54.328Z,15.76
2017-10-18T11:26:03.180Z,15.86
2017-10-18T11:27:12.680Z,15.93
2017-10-18T11:28:21.533Z,15.94
2017-10-18T11:29:30.386Z,15.92
2017-10-18T11:30:39.239Z,15.97
2017-10-18T11:31:48.098Z,16.05
2017-10-18T11:32:57.047Z,15.97
2017-10-18T11:34:05.904Z,15.97
2017-10-18T11:35:14.758Z,15.96
2017-10-18T11:36:23.610Z,16
2017-10-18T11:37:32.470Z,16.04
2017-10-18T11:38:41.622Z,16.04
2017-10-18T11:39:50.473Z,16.09
2017-10-18T11:40:59.328Z,16.12
2017-10-18T11:42:08.185Z,16.15
2017-10-18T11:43:17.038Z,16.14
2017-10-18T11:44:25.893Z,16.21
2017-10-18T11:45:34.748Z,16.23
2017-10-18T11:46:43.605Z,16.31
2017-10-18T11:47:52.460Z,16.34
2017-10-18T11:49:01.311Z,16.34
2017-10-18T11:50:10.216Z,16.38
2017-10-18T11:51:19.072Z,16.42
2017-10-18T11:52:27.923Z,16.43
2017-10-18T11:53:36.774Z,16.38
2017-10-18T11:54:45.624Z,16.49
2017-10-18T11:55:54.779Z,16.46
2017-10-18T11:57:03.632Z,16.64
2017-10-18T11:58:12.490Z,16.6
2017-10-18T11:59:21.344Z,16.66
2017-10-18T12:00:30.543Z,16.73
2017-10-18T12:01:39.395Z,16.76
2017-10-18T12:02:48.251Z,16.75
2017-10-18T12:03:57.106Z,16.76
2017-10-18T12:05:05.956Z,16.83
2017-10-18T12:06:14.811Z,16.88
2017-10-18T12:07:23.964Z,16.83
2017-10-18T12:08:32.816Z,16.93
2017-10-18T12:09:42.023Z,16.94
2017-10-18T12:10:50.883Z,16.88
2017-10-18T12:11:59.740Z,16.93
2017-10-18T12:13:08.741Z,16.94
2017-10-18T12:14:17.593Z,16.94
2017-10-18T12:15:26.795Z,16.93
2017-10-18T12:16:35.650Z,16.89
2017-10-18T12:17:44.506Z,16.93
2017-10-18T12:18:53.661Z,16.98
2017-10-18T12:20:02.618Z,16.91
2017-10-18T12:21:11.472Z,16.94
2017-10-18T12:22:20.325Z,16.91
2017-10-18T12:23:29.182Z,17.04
2017-10-18T12:24:38.051Z,16.98
2017-10-18T12:25:46.910Z,17.06
2017-10-18T12:26:55.769Z,17.03
2017-10-18T12:28:04.619Z,17.04
2017-10-18T12:29:13.479Z,17.03
2017-10-18T12:30:22.486Z,17.12
2017-10-18T12:31:31.344Z,17.18
2017-10-18T12:32:40.208Z,17.19
2017-10-18T12:33:49.070Z,17.15
2017-10-18T12:34:57.921Z,17.18
2017-10-18T12:36:06.827Z,17.22
2017-10-18T12:37:15.682Z,17.33
2017-10-18T12:38:24.539Z,17.37
2017-10-18T12:39:33.392Z,17.38
2017-10-18T12:40:42.247Z,17.37
2017-10-18T12:41:51.151Z,17.38
2017-10-18T12:43:00.007Z,17.48
2017-10-18T12:44:08.861Z,17.52
2017-10-18T12:45:17.721Z,17.51
2017-10-18T12:46:26.575Z,17.58
2017-10-18T12:47:35.530Z,17.55
2017-10-18T12:48:44.388Z,17.58
2017-10-18T12:49:53.597Z,17.52
2017-10-18T12:51:02.807Z,17.66
2017-10-18T12:52:11.662Z,17.64
2017-10-18T12:53:20.716Z,17.79
2017-10-18T12:54:29.570Z,17.72
2017-10-18T12:55:38.424Z,17.74
2017-10-18T12:56:47.280Z,17.66
2017-10-18T12:57:56.135Z,17.74
2017-10-18T12:59:05.242Z,17.74
2017-10-18T13:00:14.096Z,17.78
2017-10-18T13:01:23.311Z,17.86
2017-10-18T13:02:32.166Z,17.89
2017-10-18T13:03:41.022Z,17.9
2017-10-18T13:04:50.428Z,17.92
2017-10-18T13:05:59.286Z,17.93
2017-10-18T13:07:08.147Z,17.97
2017-10-18T13:08:16.999Z,17.99
2017-10-18T13:09:25.855Z,17.97
2017-10-18T13:10:35.109Z,18.08
2017-10-18T13:11:43.967Z,18.14
2017-10-18T13:12:52.823Z,18.08
2017-10-18T13:14:01.685Z,18.07
2017-10-18T13:15:10.886Z,18.15
2017-10-18T13:16:19.838Z,18.21
2017-10-18T13:17:29.037Z,18.12
2017-10-18T13:18:37.892Z,18.17
2017-10-18T13:19:46.748Z,18.18
2017-10-18T13:20:55.606Z,18.18
2017-10-18T13:22:04.611Z,18.29
2017-10-18T13:23:13.468Z,18.14
2017-10-18T13:24:22.324Z,18.12
2017-10-18T13:25:31.180Z,18.27
2017-10-18T13:26:40.376Z,18.15
2017-10-18T13:27:49.333Z,18.26
2017-10-18T13:28:58.189Z,18.08
2017-10-18T13:30:07.045Z,18.14
2017-10-18T13:31:15.902Z,18.26
2017-10-18T13:32:24.757Z,18.15
2017-10-18T13:33:33.661Z,18.25
2017-10-18T13:34:42.517Z,18.14
2017-10-18T13:35:51.377Z,18.23
2017-10-18T13:37:00.233Z,18.21
2017-10-18T13:38:09.092Z,18.23
2017-10-18T13:39:18.148Z,18.07
2017-10-18T13:40:27.004Z,18.14
2017-10-18T13:41:35.859Z,18.25
2017-10-18T13:42:44.716Z,18.2
2017-10-18T13:43:53.575Z,18.27
2017-10-18T13:45:02.580Z,18.23
2017-10-18T13:46:11.440Z,18.08
2017-10-18T13:47:20.289Z,18.2
2017-10-18T13:48:29.198Z,18.14
2017-10-18T13:49:38.054Z,18.2
2017-10-18T13:50:47.114Z,18.14
2017-10-18T13:51:55.963Z,18.11
2017-10-18T13:53:04.819Z,18.17
2017-10-18T13:54:13.675Z,18.23
2017-10-18T13:55:22.534Z,18.26
2017-10-18T13:56:31.491Z,18.18
2017-10-18T13:57:40.348Z,18.29
2017-10-18T13:58:49.203Z,18.15
2017-10-18T13:59:58.057Z,18.15
2017-10-18T14:01:06.916Z,18.21
2017-10-18T14:02:15.924Z,18.2
2017-10-18T14:03:24.781Z,18.12
2017-10-18T14:04:33.630Z,18.2
2017-10-18T14:05:42.829Z,18.15
2017-10-18T14:06:51.682Z,18.1
2017-10-18T14:08:00.889Z,18.07
2017-10-18T14:09:09.748Z,18.1
2017-10-18T14:10:18.606Z,18.07
2017-10-18T14:11:27.458Z,18.05
2017-10-18T14:12:36.315Z,18.1
2017-10-18T14:13:45.323Z,18.1
2017-10-18T14:14:54.177Z,18
2017-10-18T14:16:03.695Z,17.99
2017-10-18T14:17:12.546Z,17.95
2017-10-18T14:18:21.398Z,17.93
2017-10-18T14:19:30.251Z,17.87
2017-10-18T14:20:39.108Z,17.89
2017-10-18T14:21:47.964Z,17.87
2017-10-18T14:22:56.815Z,17.92
2017-10-18T14:24:05.677Z,17.74
2017-10-18T14:25:14.530Z,17.75
2017-10-18T14:26:23.382Z,17.68
2017-10-18T14:27:32.239Z,17.7
2017-10-18T14:28:41.093Z,17.74
2017-10-18T14:29:49.949Z,17.74
2017-10-18T14:30:58.807Z,17.71
2017-10-18T14:32:07.664Z,17.7
2017-10-18T14:33:16.525Z,17.64
2017-10-18T14:34:25.381Z,17.74
2017-10-18T14:35:34.236Z,17.7
2017-10-18T14:36:43.318Z,17.62
2017-10-18T14:37:52.294Z,17.63
2017-10-18T14:39:01.628Z,17.71
2017-10-18T14:40:10.582Z,17.7
2017-10-18T14:41:19.812Z,17.59
2017-10-18T14:42:29.114Z,17.68
2017-10-18T14:43:38.006Z,17.59
2017-10-18T14:44:47.017Z,17.66
2017-10-18T14:45:56.164Z,17.74
2017-10-18T14:47:05.270Z,17.68
2017-10-18T14:48:14.603Z,17.59
2017-10-18T14:49:23.555Z,17.56
2017-10-18T14:50:32.954Z,17.51
2017-10-18T14:51:42.239Z,17.49
2017-10-18T14:52:51.507Z,17.55
2017-10-18T14:54:00.421Z,17.49
2017-10-18T14:55:10.122Z,17.52
2017-10-18T14:56:19.629Z,17.59